Time;durP1;ratioP1;P1;durP2;ratioP2;P2;SDS_P1;SDS_P2;PMS_P1;PMS_P2;Temp;Humidity;BMP_temperature;BMP_pressure;BME280_temperature;BME280_humidity;BME280_pressure;Samples;Min_cycle;Max_cycle;Signal;HPM_P1;HPM_P2
2022/10/12 00:00:37;;;;;;;2.17;1.67;;;;;;;11.94;81.20;99993.66;4486272;32;35033;-73
2022/10/12 00:03:07;;;;;;;1.35;1.25;;;;;;;11.81;83.78;99996.34;4486261;32;34558;-73
2022/10/12 00:05:35;;;;;;;2.75;2.40;;;;;;;12.09;82.98;99990.09;4486271;32;33336;-73
2022/10/12 00:08:03;;;;;;;0.85;0.82;;;;;;;12.18;82.58;99994.41;4486153;32;33908;-73
2022/10/12 00:10:31;;;;;;;1.83;1.73;;;;;;;12.05;82.84;99996.25;4486059;32;35122;-73
2022/10/12 00:12:59;;;;;;;1.50;1.40;;;;;;;12.09;82.69;99999.69;4485078;32;34957;-73
2022/10/12 00:15:27;;;;;;;2.92;2.30;;;;;;;11.74;85.77;99992.87;4486148;32;33352;-74
2022/10/12 00:17:55;;;;;;;0.93;0.90;;;;;;;12.49;82.67;99994.16;4486058;32;33921;-73
2022/10/12 00:20:23;;;;;;;2.10;1.90;;;;;;;12.39;83.48;99997.72;4486030;32;34891;-73
2022/10/12 00:22:51;;;;;;;3.90;2.12;;;;;;;12.19;83.92;99998.72;4486001;32;34278;-73
2022/10/12 00:25:19;;;;;;;1.52;1.42;;;;;;;12.46;83.25;99995.06;4485930;32;33317;-73
2022/10/12 00:27:47;;;;;;;1.70;1.58;;;;;;;12.60;81.40;99994.06;4486360;32;34804;-73
2022/10/12 00:30:15;;;;;;;2.28;2.08;;;;;;;12.80;80.15;99993.91;4485939;32;35900;-73
2022/10/12 00:32:43;;;;;;;1.05;0.70;;;;;;;12.83;79.76;99999.97;4484815;32;34415;-73
2022/10/12 00:35:11;;;;;;;2.08;1.90;;;;;;;12.65;80.49;99998.41;4485994;32;33401;-73
2022/10/12 00:37:38;;;;;;;1.45;1.30;;;;;;;12.84;79.32;100001.69;4485960;32;34068;-74
2022/10/12 00:40:07;;;;;;;1.00;1.00;;;;;;;12.78;79.04;99998.28;4485800;32;35111;-74
2022/10/12 00:42:35;;;;;;;1.37;1.27;;;;;;;12.76;78.64;99994.78;4485990;32;34480;-73
2022/10/12 00:45:04;;;;;;;1.58;1.27;;;;;;;12.37;80.75;99995.16;4485830;32;34214;-74
2022/10/12 00:47:37;;;;;;;3.12;2.22;;;;;;;12.48;80.06;99989.84;4485923;32;33944;-73
2022/10/12 00:50:06;;;;;;;1.70;1.60;;;;;;;12.59;79.02;99994.97;4484873;32;35017;-73
2022/10/12 00:52:39;;;;;;;1.05;1.05;;;;;;;12.44;79.19;99993.31;4485200;32;34277;-73
2022/10/12 00:55:09;;;;;;;1.92;1.73;;;;;;;12.25;79.94;100001.31;4484795;32;34281;-73
2022/10/12 00:57:37;;;;;;;4.03;2.17;;;;;;;12.35;78.50;99985.56;4484644;32;34642;-73
2022/10/12 01:00:12;;;;;;;2.30;2.12;;;;;;;12.11;79.78;99993.56;4484647;32;35949;-73
2022/10/12 01:02:42;;;;;;;1.67;1.58;;;;;;;12.20;78.73;99999.63;4484600;32;35288;-73
2022/10/12 01:05:10;;;;;;;0.75;0.75;;;;;;;12.04;78.77;99991.88;4484528;32;33455;-73
2022/10/12 01:07:38;;;;;;;1.30;1.15;;;;;;;12.01;78.96;99993.63;4484808;32;33935;-73
2022/10/12 01:10:07;;;;;;;1.95;1.85;;;;;;;11.39;80.84;99996.50;4484355;32;35254;-73
2022/10/12 01:12:35;;;;;;;3.12;1.40;;;;;;;11.45;81.76;99995.63;4484423;32;35188;-73
2022/10/12 01:15:04;;;;;;;2.50;2.22;;;;;;;11.66;81.76;100003.34;4485630;32;33477;-73
2022/10/12 01:18:00;;;;;;;1.20;0.85;;;;;;;11.95;79.96;100003.25;4485538;32;34023;-73
2022/10/12 01:20:36;;;;;;;1.50;1.40;;;;;;;11.96;79.19;100009.31;4485471;32;35136;-73
2022/10/12 01:23:17;;;;;;;0.93;0.88;;;;;;;11.77;79.60;100009.41;4485472;32;34255;-73
2022/10/12 01:25:57;;;;;;;1.58;1.48;;;;;;;11.74;79.34;100013.75;4485441;32;33341;-73
2022/10/12 01:28:53;;;;;;;1.40;1.35;;;;;;;11.67;78.63;100014.66;4485402;32;34386;-73
2022/10/12 01:31:30;;;;;;;1.30;1.23;;;;;;;10.66;83.69;100013.13;4484233;32;33552;-73
2022/10/12 01:34:02;;;;;;;1.75;1.65;;;;;;;11.26;82.25;100015.66;4484173;32;34486;-73
2022/10/12 01:36:40;;;;;;;0.95;0.95;;;;;;;11.16;83.15;100020.91;4485423;32;33444;-73
2022/10/12 01:39:15;;;;;;;1.87;1.77;;;;;;;11.22;83.36;100019.16;4484198;32;34618;-73
2022/10/12 01:41:49;;;;;;;3.67;3.33;;;;;;;10.98;84.55;100026.16;4485196;32;35139;-73
2022/10/12 01:44:22;;;;;;;1.48;1.37;;;;;;;11.69;80.27;100026.81;4485228;32;34417;-73
2022/10/12 01:46:54;;;;;;;2.12;2.03;;;;;;;11.66;79.30;100025.97;4485243;32;33564;-73
2022/10/12 01:49:25;;;;;;;1.15;1.12;;;;;;;11.58;79.31;100021.66;4485157;32;34553;-73
2022/10/12 01:52:03;;;;;;;3.70;3.40;;;;;;;10.92;82.81;100023.53;4483903;32;34994;-73
2022/10/12 01:54:46;;;;;;;1.75;1.10;;;;;;;11.04;82.53;100025.28;4485125;32;34420;-73
2022/10/12 01:57:35;;;;;;;2.45;2.25;;;;;;;11.13;83.01;100031.31;4485017;32;33815;-73
2022/10/12 02:00:09;;;;;;;1.60;1.50;;;;;;;11.46;82.42;100029.50;4483760;32;33306;-73
2022/10/12 02:02:49;;;;;;;1.52;1.25;;;;;;;11.85;81.68;100027.63;4483769;32;35059;-73
2022/10/12 02:05:29;;;;;;;3.72;2.55;;;;;;;11.97;81.07;100033.69;4485619;32;34499;-73
2022/10/12 02:08:18;;;;;;;2.30;2.08;;;;;;;12.07;80.56;100024.91;4487125;32;33465;-73
2022/10/12 02:11:04;;;;;;;1.87;1.77;;;;;;;12.13;80.70;100032.72;4486961;32;34047;-74
2022/10/12 02:13:35;;;;;;;1.30;1.10;;;;;;;12.06;81.70;100033.63;4485824;32;35096;-73
2022/10/12 02:16:07;;;;;;;0.95;0.90;;;;;;;12.14;81.64;100026.59;4485888;32;35197;-73
2022/10/12 02:18:38;;;;;;;1.30;1.20;;;;;;;12.27;81.14;100024.81;4485793;32;33003;-73
2022/10/12 02:21:07;;;;;;;1.48;1.35;;;;;;;12.21;81.80;100025.72;4485834;32;33883;-73
2022/10/12 02:23:35;;;;;;;0.60;0.60;;;;;;;12.18;81.63;100017.91;4486728;32;35029;-73
2022/10/12 02:26:04;;;;;;;1.52;1.12;;;;;;;12.37;80.43;100026.50;4485772;32;35107;-73
2022/10/12 02:28:35;;;;;;;1.92;1.60;;;;;;;12.45;79.37;100018.59;4485730;32;34231;-73
2022/10/12 02:31:34;;;;;;;1.00;0.98;;;;;;;12.13;81.95;100028.38;4485612;32;33590;-73
2022/10/12 02:34:15;;;;;;;1.90;1.75;;;;;;;12.29;81.92;100018.69;4485650;32;35129;-73
2022/10/12 02:36:42;;;;;;;1.55;1.45;;;;;;;12.31;81.71;100022.16;4485670;32;34366;-73
2022/10/12 02:39:13;;;;;;;1.50;0.98;;;;;;;11.84;86.03;100018.06;4486849;32;34137;-73
2022/10/12 02:41:47;;;;;;;2.53;2.08;;;;;;;12.22;83.26;100016.13;4485848;32;34878;-73
2022/10/12 02:44:18;;;;;;;1.00;1.00;;;;;;;12.18;84.03;100014.41;4472604;32;33595;-73
2022/10/12 02:46:47;;;;;;;4.00;3.00;;;;;;;12.21;84.85;100023.13;4485633;32;35177;-73
2022/10/12 02:49:16;;;;;;;2.40;1.65;;;;;;;12.00;85.68;100020.59;4485704;32;33031;-73
2022/10/12 02:51:44;;;;;;;3.08;2.80;;;;;;;11.97;86.21;100025.88;4485583;32;33971;-73
2022/10/12 02:54:12;;;;;;;2.42;1.83;;;;;;;12.32;83.69;100029.12;4485647;32;35894;-73
2022/10/12 02:56:44;;;;;;;5.87;2.85;;;;;;;12.44;83.25;100036.00;4486679;32;34280;-73
2022/10/12 02:59:13;;;;;;;0.90;0.90;;;;;;;12.42;83.32;100036.87;4486664;32;33420;-73
2022/10/12 03:01:42;;;;;;;1.40;1.35;;;;;;;11.84;84.92;100031.13;4472642;32;33235;-73
2022/10/12 03:04:10;;;;;;;0.93;0.93;;;;;;;12.53;82.02;100027.25;4485507;32;35151;-73
2022/10/12 03:06:38;;;;;;;4.25;3.20;;;;;;;12.73;79.76;100028.81;4485348;32;35117;-73
2022/10/12 03:09:06;;;;;;;1.65;1.42;;;;;;;12.25;82.30;100026.56;4485511;32;33283;-73
2022/10/12 03:11:36;;;;;;;1.33;1.33;;;;;;;12.56;79.90;100026.34;4485430;32;33144;-73
2022/10/12 03:14:04;;;;;;;1.10;1.10;;;;;;;12.54;79.18;100028.09;4485361;32;35013;-73
2022/10/12 03:16:32;;;;;;;1.85;1.75;;;;;;;12.48;79.33;100034.25;4486250;32;34875;-73
2022/10/12 03:19:00;;;;;;;1.95;1.85;;;;;;;12.02;81.23;100032.78;4486513;32;33520;-73
2022/10/12 03:21:28;;;;;;;3.05;1.20;;;;;;;12.26;79.85;100034.38;4486409;32;34017;-73
2022/10/12 03:23:56;;;;;;;2.53;2.33;;;;;;;11.88;81.65;100032.81;4486212;32;34875;-73
2022/10/12 03:26:24;;;;;;;1.45;1.35;;;;;;;11.79;83.42;100034.59;4486389;32;34452;-73
2022/10/12 03:28:52;;;;;;;0.90;0.90;;;;;;;11.80;81.65;100034.59;4486450;32;34221;-73
2022/10/12 03:31:20;;;;;;;1.55;1.45;;;;;;;12.22;80.39;100031.81;4486392;32;33805;-73
2022/10/12 03:33:48;;;;;;;2.92;2.72;;;;;;;12.30;80.18;100036.09;4486262;32;35045;-73
2022/10/12 03:36:16;;;;;;;0.98;0.88;;;;;;;12.10;81.96;100033.59;4486408;32;35043;-73
2022/10/12 03:38:44;;;;;;;1.42;1.33;;;;;;;12.03;81.27;100038.88;4485225;32;32960;-73
2022/10/12 03:41:12;;;;;;;1.37;1.33;;;;;;;11.98;81.33;100033.66;4486368;32;33582;-73
2022/10/12 03:43:39;;;;;;;2.95;2.33;;;;;;;12.01;81.76;100038.00;4485133;32;35086;-73
2022/10/12 03:46:07;;;;;;;2.08;1.98;;;;;;;11.92;81.69;100036.31;4486175;32;34533;-73
2022/10/12 03:48:35;;;;;;;1.37;1.27;;;;;;;11.93;81.86;100031.09;4485206;32;33404;-73
2022/10/12 03:51:03;;;;;;;5.07;1.77;;;;;;;12.01;82.16;100024.97;4486037;32;33833;-73
2022/10/12 03:53:31;;;;;;;36.92;6.20;;;;;;;11.99;82.42;100034.56;4486318;32;35810;-73
2022/10/12 03:55:59;;;;;;;1.67;1.58;;;;;;;12.02;82.72;100037.13;4486230;32;34406;-73
2022/10/12 03:58:27;;;;;;;0.82;0.82;;;;;;;12.12;82.72;100034.47;4486284;32;34204;-73
2022/10/12 04:00:55;;;;;;;1.73;1.62;;;;;;;12.14;83.49;100029.22;4486220;32;33953;-73
2022/10/12 04:03:23;;;;;;;2.47;2.28;;;;;;;12.27;83.34;100023.06;4486076;32;35051;-73
2022/10/12 04:05:53;;;;;;;3.40;1.58;;;;;;;11.98;85.71;100017.13;4485000;32;34365;-73
2022/10/12 04:08:22;;;;;;;2.62;1.20;;;;;;;12.37;85.96;100022.97;4486232;32;34182;-73
2022/10/12 04:10:50;;;;;;;3.28;3.05;;;;;;;12.51;85.79;100026.34;4484985;32;34689;-73
2022/10/12 04:13:18;;;;;;;6.18;4.12;;;;;;;12.38;87.19;100027.34;4486416;32;35135;-74
2022/10/12 04:15:46;;;;;;;2.17;1.98;;;;;;;12.65;86.16;100016.69;4486090;32;33998;-73
2022/10/12 04:18:14;;;;;;;1.42;1.33;;;;;;;12.74;85.76;100025.31;4486107;32;34244;-73
2022/10/12 04:20:42;;;;;;;8.20;5.12;;;;;;;12.38;87.92;100024.72;4484925;32;33991;-73
2022/10/12 04:23:09;;;;;;;1.60;1.50;;;;;;;12.59;87.35;100027.19;4486079;32;35013;-73
2022/10/12 04:25:38;;;;;;;2.87;1.30;;;;;;;13.28;82.91;100020.44;4485814;32;34522;-73
2022/10/12 04:28:06;;;;;;;1.23;1.15;;;;;;;12.97;84.16;100032.94;4485170;32;33297;-73
2022/10/12 04:30:34;;;;;;;1.52;1.20;;;;;;;12.60;86.49;100031.53;4484785;32;34004;-74
2022/10/12 04:33:03;;;;;;;1.98;1.83;;;;;;;13.07;84.68;100030.22;4485790;32;35974;-74
2022/10/12 04:35:31;;;;;;;0.85;0.85;;;;;;;13.21;82.60;100031.84;4484846;32;34561;-74
2022/10/12 04:37:58;;;;;;;3.75;3.35;;;;;;;13.51;80.08;100029.81;4484807;32;33481;-77
2022/10/12 04:40:26;;;;;;;2.85;2.58;;;;;;;12.58;85.23;100028.03;4486049;32;33971;-75
2022/10/12 04:42:55;;;;;;;1.23;1.17;;;;;;;12.56;85.88;100037.63;4485731;32;35007;-76
2022/10/12 04:45:22;;;;;;;3.90;3.05;;;;;;;13.09;83.25;100032.81;4485908;32;34464;-75
2022/10/12 04:47:50;;;;;;;1.58;1.50;;;;;;;12.62;86.08;100041.97;4485880;32;33533;-74
2022/10/12 04:50:18;;;;;;;2.00;1.90;;;;;;;12.95;83.51;100035.56;4485995;32;34739;-77
2022/10/12 04:52:46;;;;;;;2.00;1.42;;;;;;;12.89;82.61;100040.87;4485764;32;35072;-75
2022/10/12 04:55:14;;;;;;;1.85;1.35;;;;;;;13.38;79.93;100035.19;4485761;32;34336;-77
2022/10/12 04:57:43;;;;;;;1.20;1.10;;;;;;;12.66;83.50;100039.31;4485802;32;33508;-72
2022/10/12 05:00:12;;;;;;;3.05;2.72;;;;;;;12.96;83.83;100039.06;4485629;32;34806;-75
2022/10/12 05:02:40;;;;;;;2.45;1.80;;;;;;;12.70;84.14;100043.63;4484661;32;35297;-76
2022/10/12 05:05:08;;;;;;;8.05;3.35;;;;;;;12.67;84.76;100050.63;4485646;32;34302;-71
2022/10/12 05:07:36;;;;;;;2.50;2.05;;;;;;;12.82;85.41;100047.03;4485638;32;33385;-78
2022/10/12 05:10:05;;;;;;;3.20;2.90;;;;;;;13.15;81.40;100042.38;4484414;32;34053;-79
2022/10/12 05:12:32;;;;;;;2.78;2.58;;;;;;;13.23;82.46;100045.75;4484374;32;36067;-72
2022/10/12 05:15:01;;;;;;;1.92;1.83;;;;;;;12.90;83.69;100048.69;4483468;31;34423;-70
2022/10/12 05:17:29;;;;;;;1.48;1.20;;;;;;;12.91;83.78;100052.16;4485579;31;33346;-71
2022/10/12 05:19:57;;;;;;;1.83;1.73;;;;;;;13.22;81.91;100050.13;4497954;31;34787;-72
2022/10/12 05:22:25;;;;;;;2.45;1.77;;;;;;;13.43;81.14;100054.31;4484951;32;34977;-76
2022/10/12 05:24:53;;;;;;;6.07;3.40;;;;;;;12.95;83.19;100050.41;4485111;32;35178;-74
2022/10/12 05:27:21;;;;;;;3.25;2.25;;;;;;;12.95;83.30;100050.41;4485368;32;33424;-75
2022/10/12 05:29:49;;;;;;;1.65;1.55;;;;;;;13.37;81.85;100056.12;4485403;32;34009;-74
2022/10/12 05:32:17;;;;;;;2.35;2.03;;;;;;;13.07;83.87;100061.59;4484088;32;34987;-72
2022/10/12 05:34:45;;;;;;;1.77;1.67;;;;;;;13.77;80.75;100059.16;4485252;32;34504;-72
2022/10/12 05:37:13;;;;;;;3.28;2.50;;;;;;;13.95;79.57;100059.81;4485277;32;34097;-72
2022/10/12 05:39:41;;;;;;;3.33;3.08;;;;;;;13.80;80.52;100053.87;4486095;32;34198;-73
2022/10/12 05:42:08;;;;;;;2.90;2.33;;;;;;;13.86;81.46;100057.31;4487222;32;35200;-76
2022/10/12 05:44:36;;;;;;;6.93;5.30;;;;;;;13.82;82.66;100062.56;4485995;32;33639;-76
2022/10/12 05:47:04;;;;;;;2.03;1.65;;;;;;;13.96;82.87;100059.78;4487126;32;33443;-74
2022/10/12 05:49:32;;;;;;;5.53;3.37;;;;;;;13.65;84.70;100070.63;4486000;31;33813;-72
2022/10/12 05:52:00;;;;;;;3.00;2.40;;;;;;;14.25;83.17;100066.38;4495751;31;35382;-73
2022/10/12 05:54:28;;;;;;;4.35;1.73;;;;;;;14.00;85.21;100068.47;4489361;31;35087;-71
2022/10/12 05:56:58;;;;;;;4.65;3.58;;;;;;;14.60;83.07;100065.88;4499053;31;34242;-74
2022/10/12 05:59:26;;;;;;;4.05;3.55;;;;;;;14.64;83.60;100079.81;4493035;31;34696;-74
2022/10/12 06:01:54;;;;;;;2.60;2.37;;;;;;;15.27;79.77;100070.87;4492635;31;35152;-72
2022/10/12 06:04:22;;;;;;;1.83;1.73;;;;;;;15.60;77.67;100078.13;4499054;31;34290;-74
2022/10/12 06:06:50;;;;;;;1.15;1.10;;;;;;;15.81;75.92;100077.75;4489289;31;33499;-74
2022/10/12 06:09:18;;;;;;;2.60;2.35;;;;;;;16.31;73.75;100088.09;4496710;31;34082;-73
2022/10/12 06:11:46;;;;;;;1.30;1.20;;;;;;;16.67;72.52;100088.13;4495229;31;34960;-72
2022/10/12 06:14:17;;;;;;;1.42;1.33;;;;;;;16.92;71.55;100079.66;4490301;31;34694;-73
2022/10/12 06:16:45;;;;;;;1.95;1.55;;;;;;;17.42;69.14;100080.13;4499380;31;33687;-75
2022/10/12 06:19:16;;;;;;;2.50;2.33;;;;;;;17.23;69.77;100085.88;4491933;31;33755;-73
2022/10/12 06:21:44;;;;;;;1.92;1.77;;;;;;;17.68;66.72;100086.44;4493936;31;35912;-72
2022/10/12 06:24:12;;;;;;;1.02;1.02;;;;;;;17.49;66.30;100092.22;4494719;31;34340;-73
2022/10/12 06:26:40;;;;;;;2.45;2.17;;;;;;;17.23;65.94;100088.50;4491532;31;34090;-73
2022/10/12 06:29:08;;;;;;;3.58;3.20;;;;;;;17.48;66.58;100094.91;4502231;31;34896;-75
2022/10/12 06:31:37;;;;;;;2.75;2.45;;;;;;;17.50;65.53;100096.56;4493329;31;35374;-74
2022/10/12 06:34:05;;;;;;;4.70;2.53;;;;;;;17.40;65.27;100092.44;4496966;31;34996;-74
2022/10/12 06:36:33;;;;;;;2.85;2.60;;;;;;;17.19;66.01;100092.13;4487887;31;32932;-75
2022/10/12 06:39:01;;;;;;;2.95;1.62;;;;;;;17.49;65.21;100094.87;4498375;31;33849;-74
2022/10/12 06:41:29;;;;;;;3.90;2.87;;;;;;;17.52;64.97;100097.38;4493133;31;34889;-73
2022/10/12 06:43:57;;;;;;;1.87;1.42;;;;;;;16.83;68.03;100107.03;4492151;31;34282;-71
2022/10/12 06:46:25;;;;;;;5.00;2.50;;;;;;;16.60;67.92;100104.94;4499265;31;34068;-72
2022/10/12 06:48:53;;;;;;;2.97;2.37;;;;;;;16.68;67.97;100108.28;4489150;31;34037;-70
2022/10/12 06:51:21;;;;;;;3.55;2.53;;;;;;;16.63;70.41;100104.87;4495365;31;34542;-75
2022/10/12 06:53:49;;;;;;;2.10;1.73;;;;;;;17.08;68.95;100102.06;4494935;31;34375;-74
2022/10/12 06:56:17;;;;;;;2.28;1.42;;;;;;;16.95;67.55;100111.16;4489951;31;34208;-74
2022/10/12 06:58:45;;;;;;;2.28;1.92;;;;;;;17.14;64.05;100112.44;4499403;31;34703;-76
2022/10/12 07:01:17;;;;;;;1.15;0.98;;;;;;;17.22;62.94;100110.50;4491330;31;35070;-70
2022/10/12 07:03:48;;;;;;;2.40;1.70;;;;;;;17.19;63.89;100112.34;4493400;31;34558;-71
2022/10/12 07:06:16;;;;;;;1.65;1.55;;;;;;;16.95;65.25;100111.16;4497930;31;34343;-69
2022/10/12 07:08:44;;;;;;;1.58;1.10;;;;;;;17.62;60.74;100113.81;4488751;31;34774;-70
2022/10/12 07:11:12;;;;;;;1.08;0.98;;;;;;;17.30;64.52;100117.31;4497099;31;35906;-69
2022/10/12 07:13:41;;;;;;;8.63;2.20;;;;;;;17.10;64.71;100113.44;4493983;31;34240;-69
2022/10/12 07:16:08;;;;;;;1.52;1.42;;;;;;;17.46;63.74;100117.78;4490685;31;33402;-69
2022/10/12 07:18:37;;;;;;;1.40;1.20;;;;;;;17.75;61.39;100109.06;4499025;31;33973;-71
2022/10/12 07:21:05;;;;;;;1.12;1.05;;;;;;;18.25;59.96;100112.06;4490146;31;34981;-70
2022/10/12 07:23:34;;;;;;;2.10;1.92;;;;;;;18.21;58.47;100113.03;4494101;31;34402;-70
2022/10/12 07:26:02;;;;;;;2.67;2.00;;;;;;;17.60;60.16;100108.59;4496372;31;34302;-69
2022/10/12 07:28:33;;;;;;;1.05;1.00;;;;;;;17.54;60.51;100106.13;4487269;31;33834;-74
2022/10/12 07:31:03;;;;;;;2.83;2.37;;;;;;;17.57;59.09;100107.81;4497952;31;35063;-70
2022/10/12 07:33:33;;;;;;;5.20;1.65;;;;;;;17.27;61.76;100112.97;4493161;31;35439;-73
2022/10/12 07:36:01;;;;;;;1.80;1.67;;;;;;;17.66;61.25;100104.06;4491469;31;32955;-75
2022/10/12 07:38:46;;;;;;;2.67;2.22;;;;;;;17.38;62.03;100110.94;4498427;31;34038;-74
2022/10/12 07:41:15;;;;;;;2.30;2.15;;;;;;;18.28;58.69;100109.34;4489670;31;34918;-75
2022/10/12 07:43:43;;;;;;;1.48;1.37;;;;;;;18.24;60.01;100107.69;4493420;31;35110;-74
2022/10/12 07:46:11;;;;;;;0.80;0.80;;;;;;;18.06;57.46;100113.50;4497317;31;33492;-74
2022/10/12 07:48:40;;;;;;;1.73;1.62;;;;;;;18.05;57.94;100107.34;4488524;31;33514;-75
2022/10/12 07:51:14;;;;;;;1.23;1.12;;;;;;;17.90;57.28;100111.31;4495174;31;35952;-75
2022/10/12 07:53:42;;;;;;;1.35;1.17;;;;;;;18.46;55.32;100107.00;4493828;31;34389;-75
2022/10/12 07:56:14;;;;;;;1.75;1.65;;;;;;;18.17;57.36;100116.69;4490382;31;33878;-76
2022/10/12 07:58:51;;;;;;;2.65;2.30;;;;;;;18.42;57.57;100113.31;4499038;31;34782;-75
2022/10/12 08:01:22;;;;;;;2.17;1.60;;;;;;;18.96;55.45;100109.00;4491490;31;34999;-75
2022/10/12 08:03:51;;;;;;;3.58;2.10;;;;;;;18.78;54.31;100113.94;4489946;31;33824;-75
2022/10/12 08:06:25;;;;;;;2.42;2.22;;;;;;;18.50;54.63;100113.94;4498169;31;33505;-76
2022/10/12 08:08:54;;;;;;;0.77;0.77;;;;;;;18.48;55.19;100116.62;4488710;31;34638;-75
2022/10/12 08:11:23;;;;;;;2.40;1.90;;;;;;;18.76;55.23;100116.62;4494119;31;34831;-79
2022/10/12 08:13:52;;;;;;;4.93;2.47;;;;;;;19.02;54.33;100112.28;4494441;31;34593;-72
2022/10/12 08:16:22;;;;;;;1.25;1.15;;;;;;;18.63;54.31;100111.78;4489028;31;33414;-75
2022/10/12 08:18:54;;;;;;;0.80;0.80;;;;;;;18.86;53.82;100117.19;4485925;32;34011;-80
2022/10/12 08:21:22;;;;;;;2.55;2.00;;;;;;;18.99;52.79;100114.16;4486129;32;35066;-78
2022/10/12 08:23:50;;;;;;;1.67;1.58;;;;;;;18.95;54.24;100105.47;4485915;32;34482;-78
2022/10/12 08:26:18;;;;;;;2.60;2.22;;;;;;;18.96;54.17;100111.66;4486162;32;34212;-75
2022/10/12 08:28:47;;;;;;;1.02;0.98;;;;;;;18.94;55.19;100119.63;4484573;32;34068;-75
2022/10/12 08:31:16;;;;;;;1.83;1.60;;;;;;;18.69;54.81;100114.25;4485674;32;35128;-80
2022/10/12 08:33:44;;;;;;;2.45;1.83;;;;;;;18.94;53.58;100115.19;4484575;32;33870;-78
2022/10/12 08:36:12;;;;;;;0.90;0.90;;;;;;;18.46;54.96;100112.28;4486061;32;33429;-83
2022/10/12 08:38:42;;;;;;;1.20;1.10;;;;;;;18.48;53.47;100110.50;4485957;32;34632;-75
2022/10/12 08:41:45;;;;;;;2.30;1.70;;;;;;;18.80;52.28;100111.25;4485716;32;34540;-73
2022/10/12 08:44:24;;;;;;;1.02;1.02;;;;;;;18.21;54.76;100104.28;4466243;31;34370;-75
2022/10/12 08:47:01;;;;;;;1.17;1.08;;;;;;;18.42;54.92;100108.88;4485972;32;33563;-77
2022/10/12 08:49:30;;;;;;;2.80;1.73;;;;;;;18.35;55.51;100110.88;4486375;32;34106;-76
2022/10/12 08:52:02;;;;;;;1.50;1.40;;;;;;;18.56;54.52;100111.09;4485664;32;35054;-76
2022/10/12 08:54:38;;;;;;;1.90;1.33;;;;;;;18.73;55.03;100108.78;4485764;32;35184;-77
2022/10/12 08:57:14;;;;;;;2.00;1.65;;;;;;;19.00;54.18;100105.34;4484720;32;33384;-76
2022/10/12 08:59:43;;;;;;;1.55;1.30;;;;;;;18.85;54.84;100109.38;4485956;32;33987;-79
2022/10/12 09:02:50;;;;;;;1.75;1.65;;;;;;;18.85;52.82;100114.66;4484255;32;35088;-77
2022/10/12 09:05:26;;;;;;;1.37;1.27;;;;;;;19.20;53.06;100115.22;4475393;32;35140;-75
2022/10/12 09:08:02;;;;;;;4.53;1.77;;;;;;;19.54;52.39;100114.09;4484693;32;33459;-77
2022/10/12 09:10:45;;;;;;;1.63;1.53;;;;;;;19.28;51.09;100105.28;4484288;32;34904;-76
2022/10/12 09:13:47;;;;;;;0.85;0.85;;;;;;;19.11;52.95;100109.38;4484251;32;35881;-77
2022/10/12 09:16:15;;;;;;;2.05;1.85;;;;;;;19.45;53.96;100110.84;4485645;32;35253;-75
2022/10/12 09:18:45;;;;;;;2.03;1.12;;;;;;;19.56;51.37;100112.25;4485460;32;33418;-73
2022/10/12 09:21:19;;;;;;;1.55;1.45;;;;;;;19.34;52.39;100112.97;4484527;32;33290;-78
2022/10/12 09:23:48;;;;;;;2.72;2.30;;;;;;;19.64;51.88;100110.16;4476950;32;266523;-76
2022/10/12 09:26:22;;;;;;;1.48;1.37;;;;;;;19.00;52.09;100110.63;4485565;32;35271;-75
2022/10/12 09:28:56;;;;;;;1.87;1.75;;;;;;;19.10;53.45;100104.97;4485244;32;34313;-76
2022/10/12 09:31:52;;;;;;;2.22;1.23;;;;;;;19.79;50.52;100109.66;4485485;32;33936;-75
2022/10/12 09:34:22;;;;;;;1.42;1.35;;;;;;;19.46;53.75;100101.13;4484473;32;34461;-76
2022/10/12 09:36:50;;;;;;;3.25;1.42;;;;;;;19.56;52.94;100106.97;4484081;32;34176;-78
2022/10/12 09:39:45;;;;;;;1.25;1.17;;;;;;;19.76;53.23;100109.75;4485277;32;33383;-76
2022/10/12 09:42:13;;;;;;;2.22;1.87;;;;;;;20.13;51.14;100111.03;4482888;31;34102;-77
2022/10/12 09:44:49;;;;;;;1.30;1.23;;;;;;;19.57;51.03;100109.56;4485195;32;35929;-79
2022/10/12 09:47:23;;;;;;;;;;;;;;;19.62;51.94;100110.22;4485618;32;34580;-75
2022/10/12 09:49:58;;;;;;;1.58;1.48;;;;;;;19.98;51.42;100111.63;4485277;32;33514;-79
2022/10/12 09:52:40;;;;;;;0.62;0.62;;;;;;;19.99;50.82;100114.19;4484065;32;34210;-77
2022/10/12 09:55:11;;;;;;;2.10;1.90;;;;;;;20.16;50.80;100113.56;4483994;32;35719;-76
2022/10/12 09:57:42;;;;;;;1.52;1.42;;;;;;;20.42;50.50;100117.88;4485109;32;34318;-77
2022/10/12 10:00:30;;;;;;;1.62;1.52;;;;;;;20.50;50.36;100117.56;4485035;32;32711;-76
2022/10/12 10:02:59;;;;;;;1.10;1.08;;;;;;;20.50;48.84;100114.91;4484943;32;34024;-76
2022/10/12 10:05:31;;;;;;;1.08;1.08;;;;;;;21.24;49.44;100111.94;4484758;32;35025;-76
2022/10/12 10:08:18;;;;;;;1.05;0.55;;;;;;;21.30;49.49;100117.00;4484866;32;35287;-76
2022/10/12 10:10:52;;;;;;;0.55;0.52;;;;;;;21.46;48.04;100116.34;4484903;32;33517;-77
2022/10/12 10:13:22;;;;;;;1.70;1.40;;;;;;;21.39;47.28;100118.37;4484999;32;34638;-76
2022/10/12 10:16:02;;;;;;;3.72;2.37;;;;;;;20.95;50.12;100113.19;4484691;32;35870;-77
2022/10/12 10:18:34;;;;;;;1.45;1.05;;;;;;;21.16;47.80;100114.91;4481647;31;34433;-75
2022/10/12 10:21:05;;;;;;;0.98;0.98;;;;;;;21.88;47.61;100115.37;4484648;31;33294;-76
2022/10/12 10:23:50;;;;;;;2.42;2.17;;;;;;;21.20;47.01;100113.84;4495746;31;34749;-76
2022/10/12 10:26:20;;;;;;;0.77;0.77;;;;;;;21.82;47.41;100111.22;4491145;31;35213;-76
2022/10/12 10:28:54;;;;;;;0.80;0.80;;;;;;;22.17;45.31;100108.75;4491729;31;34495;-74
2022/10/12 10:31:26;;;;;;;2.33;1.67;;;;;;;21.64;47.42;100104.94;4499498;31;34366;-74
2022/10/12 10:34:14;;;;;;;2.37;2.15;;;;;;;21.78;47.78;100115.78;4491363;31;34727;-77
2022/10/12 10:36:47;;;;;;;3.03;2.28;;;;;;;21.77;47.01;100108.75;4491847;31;34681;-74
2022/10/12 10:39:18;;;;;;;0.62;0.60;;;;;;;21.66;44.98;100115.50;4499321;31;34517;-75
2022/10/12 10:41:46;;;;;;;2.28;1.70;;;;;;;21.82;45.54;100110.38;4490160;31;34453;-75
2022/10/12 10:44:29;;;;;;;1.58;1.37;;;;;;;21.33;45.75;100115.97;4500912;31;33982;-75
2022/10/12 10:47:01;;;;;;;2.25;1.37;;;;;;;21.71;45.87;100109.03;4501915;31;35140;-74
2022/10/12 10:49:54;;;;;;;1.95;1.40;;;;;;;21.62;47.41;100105.94;4500350;31;34253;-76
2022/10/12 10:52:31;;;;;;;1.27;1.10;;;;;;;21.06;46.97;100107.44;4502235;31;33403;-75
2022/10/12 10:55:08;;;;;;;1.45;1.35;;;;;;;21.93;46.48;100113.38;4491231;31;34528;-74
2022/10/12 10:57:41;;;;;;;1.65;1.55;;;;;;;21.77;46.09;100103.44;4492835;31;35043;-77
2022/10/12 11:00:19;;;;;;;1.55;1.45;;;;;;;21.04;46.57;100102.19;4491714;31;34351;-75
2022/10/12 11:03:12;;;;;;;2.22;1.37;;;;;;;21.26;47.21;100107.44;4488481;31;33225;-75
2022/10/12 11:05:44;;;;;;;1.60;0.88;;;;;;;20.98;47.19;100108.63;4493797;31;33953;-76
2022/10/12 11:08:25;;;;;;;1.08;1.00;;;;;;;20.62;50.15;100101.22;4486305;32;35916;-76
2022/10/12 11:10:56;;;;;;;1.62;1.52;;;;;;;20.50;48.40;100100.84;4486576;32;34504;-78
2022/10/12 11:13:30;;;;;;;1.48;1.37;;;;;;;20.93;48.63;100104.41;4486610;32;33271;-79
2022/10/12 11:16:08;;;;;;;0.45;0.45;;;;;;;21.13;47.67;100100.94;4485524;32;34036;-77
2022/10/12 11:18:44;;;;;;;1.55;1.15;;;;;;;20.61;49.33;100107.47;4484121;32;35067;-75
2022/10/12 11:21:14;;;;;;;;;;;;;;;20.72;49.44;100103.50;4485739;32;34441;-77
2022/10/12 11:24:09;;;;;;;1.30;1.20;;;;;;;20.94;47.92;100107.00;4485238;32;33519;-80
2022/10/12 11:26:44;;;;;;;1.20;0.80;;;;;;;21.13;48.24;100091.22;4485316;32;33715;-77
2022/10/12 11:29:14;;;;;;;1.10;1.05;;;;;;;21.19;46.35;100096.25;4485460;32;35079;-77
2022/10/12 11:31:47;;;;;;;1.23;1.02;;;;;;;21.02;46.62;100094.31;4486414;32;35225;-76
2022/10/12 11:34:18;;;;;;;2.55;1.83;;;;;;;21.00;45.17;100096.16;4486444;32;33373;-76
2022/10/12 11:36:48;;;;;;;1.35;1.27;;;;;;;20.78;45.59;100106.75;4486116;32;34005;-76
2022/10/12 11:39:43;;;;;;;0.60;0.50;;;;;;;20.76;46.75;100094.53;4485469;32;34776;-75
2022/10/12 11:42:15;;;;;;;2.37;1.77;;;;;;;20.91;47.57;100101.84;4486385;32;35174;-76
2022/10/12 11:44:50;;;;;;;1.23;1.12;;;;;;;21.06;47.29;100097.69;4485285;32;33363;-76
2022/10/12 11:47:29;;;;;;;0.75;0.75;;;;;;;21.58;46.25;100097.25;4485301;32;33918;-76